Time;durP1;ratioP1;P1;durP2;ratioP2;P2;SDS_P1;SDS_P2;PMS_P1;PMS_P2;Temp;Humidity;BMP_temperature;BMP_pressure;BME280_temperature;BME280_humidity;BME280_pressure;Samples;Min_cycle;Max_cycle;Signal;HPM_P1;HPM_P2
2023/10/25 00:00:13;;;;;;;32.42;6.95;;;;;;;13.42;100.00;94340.53;4984567;28;20025;-89
2023/10/25 00:02:38;;;;;;;20.10;6.38;;;;;;;13.49;100.00;94354.31;4991664;28;20025;-88
2023/10/25 00:05:04;;;;;;;15.73;5.90;;;;;;;13.41;100.00;94354.53;4989804;28;20022;-87
2023/10/25 00:07:29;;;;;;;22.58;6.88;;;;;;;13.48;100.00;94357.94;4989251;28;20578;-91
2023/10/25 00:09:55;;;;;;;22.30;7.78;;;;;;;13.50;100.00;94363.72;5006319;28;20025;-85
2023/10/25 00:12:21;;;;;;;24.92;7.18;;;;;;;13.49;100.00;94367.31;5020294;28;20029;-88
2023/10/25 00:14:46;;;;;;;23.38;6.82;;;;;;;13.51;100.00;94355.75;5005748;28;20117;-88
2023/10/25 00:17:12;;;;;;;24.42;7.32;;;;;;;13.52;100.00;94343.50;5022326;28;20092;-86
2023/10/25 00:19:37;;;;;;;21.70;6.85;;;;;;;13.52;100.00;94351.31;5004161;28;20124;-85
2023/10/25 00:22:03;;;;;;;15.68;7.03;;;;;;;13.39;100.00;94346.94;5023191;28;20031;-86
2023/10/25 00:24:28;;;;;;;27.63;7.13;;;;;;;13.46;100.00;94350.31;4986913;28;20492;-84
2023/10/25 00:26:53;;;;;;;17.73;7.50;;;;;;;13.31;100.00;94328.16;5022142;28;20693;-87
2023/10/25 00:29:20;;;;;;;15.35;7.35;;;;;;;13.04;100.00;94332.53;4986591;28;20061;-85
2023/10/25 00:34:20;;;;;;;21.88;7.75;;;;;;;12.50;100.00;94304.16;5365613;22;20065;-82
2023/10/25 00:39:21;;;;;;;16.92;8.00;;;;;;;12.47;100.00;94314.94;5148332;22;20068;-83
2023/10/25 00:41:46;;;;;;;22.10;7.95;;;;;;;12.26;100.00;94309.91;5005351;28;20038;-81
2023/10/25 00:44:11;;;;;;;18.02;7.75;;;;;;;12.03;100.00;94308.47;5027470;28;20046;-80
2023/10/25 00:46:37;;;;;;;17.30;7.28;;;;;;;12.18;100.00;94312.66;5028319;28;20037;-81
2023/10/25 00:51:38;;;;;;;22.00;8.25;;;;;;;12.20;100.00;94313.28;6119796;22;20024;-80
2023/10/25 00:54:04;;;;;;;31.67;9.10;;;;;;;12.18;100.00;94315.28;5024127;28;20038;-80
2023/10/25 00:59:04;;;;;;;21.55;7.82;;;;;;;12.12;100.00;94322.06;5788242;22;20054;-82
2023/10/25 01:04:05;;;;;;;21.02;8.45;;;;;;;12.10;100.00;94313.66;6066428;22;20205;-83
2023/10/25 01:09:30;;;;;;;;;;;;;;;12.21;100.00;94317.47;5299314;23;20145;-85
2023/10/25 01:11:56;;;;;;;14.65;7.45;;;;;;;12.30;100.00;94305.91;4996144;28;19952;-85
2023/10/25 01:16:57;;;;;;;23.70;7.55;;;;;;;12.15;100.00;94321.66;6102538;23;20012;-82
2023/10/25 01:19:22;;;;;;;20.92;8.32;;;;;;;12.15;100.00;94303.50;5017848;28;20040;-81
2023/10/25 01:21:48;;;;;;;17.02;7.55;;;;;;;12.24;100.00;94304.91;4972913;28;20026;-84
2023/10/25 01:24:13;;;;;;;20.70;9.00;;;;;;;12.21;100.00;94294.09;4971930;28;20556;-85
2023/10/25 01:26:39;;;;;;;21.42;8.38;;;;;;;12.12;100.00;94306.47;5014048;28;20036;-81
2023/10/25 01:29:04;;;;;;;27.10;8.00;;;;;;;12.05;100.00;94306.47;5584795;23;20027;-83
2023/10/25 01:31:30;;;;;;;28.00;8.45;;;;;;;12.06;100.00;94302.06;5032634;28;20033;-84
2023/10/25 01:33:55;;;;;;;19.20;7.80;;;;;;;12.17;100.00;94308.50;5027918;28;20051;-85
2023/10/25 01:36:21;;;;;;;23.25;8.05;;;;;;;12.14;100.00;94297.50;5027316;28;20514;-82
2023/10/25 01:38:46;;;;;;;19.67;7.47;;;;;;;12.11;100.00;94292.69;5023330;28;20038;-80
2023/10/25 01:41:16;;;;;;;18.80;7.70;;;;;;;12.19;100.00;94291.72;4992895;28;20065;-83
2023/10/25 01:43:42;;;;;;;20.88;7.68;;;;;;;12.12;100.00;94299.50;5011236;28;20045;-81
2023/10/25 01:46:08;;;;;;;25.65;7.68;;;;;;;12.19;100.00;94306.50;5050823;28;20082;-84
2023/10/25 01:56:21;;;;;;;13.07;7.40;;;;;;;12.12;100.00;94315.06;5384089;23;20080;-87
2023/10/25 01:58:49;;;;;;;23.05;7.28;;;;;;;11.95;100.00;94297.44;4993507;28;20041;-88
2023/10/25 02:14:58;;;;;;;16.70;8.13;;;;;;;11.93;100.00;94331.38;5308294;23;20064;-85
2023/10/25 02:17:24;;;;;;;19.75;8.32;;;;;;;11.67;100.00;94323.44;5004007;28;20050;-87
2023/10/25 02:19:49;;;;;;;24.35;8.15;;;;;;;11.85;100.00;94330.72;5000667;28;20041;-81
2023/10/25 02:22:15;;;;;;;22.20;7.30;;;;;;;11.78;100.00;94341.09;5048438;28;20069;-80
2023/10/25 02:24:40;;;;;;;21.30;7.65;;;;;;;11.73;100.00;94337.47;5039074;28;20060;-81
2023/10/25 02:27:06;;;;;;;21.75;7.63;;;;;;;11.81;100.00;94350.28;5023011;28;20244;-83
2023/10/25 02:32:07;;;;;;;22.20;7.78;;;;;;;11.70;100.00;94341.25;5794868;23;20556;-81
2023/10/25 02:34:34;;;;;;;19.17;7.43;;;;;;;11.63;100.00;94337.78;5038465;28;20125;-80
2023/10/25 02:37:00;;;;;;;16.98;7.72;;;;;;;11.56;100.00;94340.34;5026457;28;20030;-82
2023/10/25 02:39:25;;;;;;;20.25;7.82;;;;;;;11.55;100.00;94340.56;5044514;28;20026;-79
2023/10/25 02:41:50;;;;;;;19.17;8.23;;;;;;;11.47;100.00;94361.44;5401853;23;20013;-79
2023/10/25 02:44:16;;;;;;;16.50;7.38;;;;;;;11.51;100.00;94381.63;5022187;28;20058;-81
2023/10/25 02:46:41;;;;;;;24.85;8.02;;;;;;;11.38;100.00;94362.59;4982311;28;20997;-81
2023/10/25 03:01:57;;;;;;;21.27;7.30;;;;;;;10.85;100.00;94305.22;5011567;28;20045;-81
2023/10/25 03:04:23;;;;;;;24.33;7.47;;;;;;;11.30;100.00;94303.13;5436441;23;20096;-82
2023/10/25 03:09:23;;;;;;;25.27;7.32;;;;;;;11.64;100.00;94241.66;5671834;23;20086;-79
2023/10/25 03:11:49;;;;;;;17.88;6.75;;;;;;;11.70;100.00;94260.84;5057638;28;20077;-80
2023/10/25 03:16:40;;;;;;;19.70;6.57;;;;;;;11.71;100.00;94213.16;5613043;23;20037;-82
2023/10/25 03:44:57;;;;;;;23.50;5.60;;;;;;;13.08;100.00;94156.97;5061925;23;20065;-81
2023/10/25 03:49:57;;;;;;;19.02;4.30;;;;;;;15.59;100.00;94118.22;5833302;23;20072;-88
2023/10/25 03:52:23;;;;;;;22.80;4.35;;;;;;;16.62;100.00;94110.78;5001540;28;20037;-89
2023/10/25 03:54:48;;;;;;;19.70;4.43;;;;;;;17.56;94.14;94122.69;4970433;28;20057;-92
2023/10/25 03:57:14;;;;;;;16.95;4.20;;;;;;;17.25;96.04;94124.66;4969965;28;20364;-82
2023/10/25 03:59:39;;;;;;;22.52;4.40;;;;;;;17.11;98.45;94122.56;5020760;28;20840;-88
2023/10/25 04:02:05;;;;;;;18.88;4.45;;;;;;;16.82;100.00;94090.31;5003065;28;20056;-85
2023/10/25 04:04:30;;;;;;;20.27;4.88;;;;;;;17.33;100.00;94103.38;5009127;28;20124;-82
2023/10/25 04:06:56;;;;;;;16.67;4.53;;;;;;;17.29;100.00;94102.25;5045276;28;20051;-86
2023/10/25 04:09:21;;;;;;;19.75;4.65;;;;;;;17.24;100.00;94099.50;5020932;28;20025;-83
2023/10/25 04:11:46;;;;;;;22.88;5.00;;;;;;;17.31;100.00;94099.38;5026494;28;20124;-80
2023/10/25 04:14:12;;;;;;;17.90;5.07;;;;;;;17.13;100.00;94102.19;5036137;28;20095;-79
2023/10/25 04:16:38;;;;;;;20.17;5.63;;;;;;;17.17;100.00;94105.94;5065048;23;20084;-76
2023/10/25 04:19:04;;;;;;;27.42;5.65;;;;;;;17.21;100.00;94099.22;4965127;28;20029;-90
2023/10/25 04:21:29;;;;;;;21.13;5.22;;;;;;;17.15;100.00;94098.28;5028724;28;20033;-89
2023/10/25 04:23:55;;;;;;;27.52;5.25;;;;;;;17.30;98.46;94088.13;5004809;28;20025;-86
2023/10/25 04:26:20;;;;;;;26.30;5.20;;;;;;;17.35;97.88;94109.16;5011320;28;20555;-76
2023/10/25 04:28:45;;;;;;;18.15;5.45;;;;;;;17.40;98.91;94106.63;5011176;28;20026;-83
2023/10/25 04:31:11;;;;;;;17.67;5.00;;;;;;;17.42;99.65;94114.25;5016039;28;20034;-81
2023/10/25 04:33:38;;;;;;;23.83;5.97;;;;;;;17.33;100.00;94098.16;4977454;28;20029;-88
2023/10/25 04:36:04;;;;;;;22.27;5.85;;;;;;;17.32;98.90;94083.47;5003490;28;20478;-78
2023/10/25 04:38:30;;;;;;;20.27;5.32;;;;;;;17.37;98.19;94087.97;5037953;23;20527;-80
2023/10/25 04:40:55;;;;;;;20.98;5.28;;;;;;;17.43;97.50;94104.59;5026244;28;20708;-88
2023/10/25 04:43:21;;;;;;;19.15;4.75;;;;;;;17.51;96.38;94114.69;5123211;23;20049;-83
2023/10/25 04:45:46;;;;;;;23.77;6.05;;;;;;;17.39;99.57;94107.69;4992683;28;20040;-84
2023/10/25 04:48:12;;;;;;;18.75;6.15;;;;;;;17.47;100.00;94126.63;4985505;28;20587;-85
2023/10/25 04:50:38;;;;;;;21.67;6.32;;;;;;;17.33;100.00;94092.91;5018510;28;20017;-87
2023/10/25 04:53:04;;;;;;;23.50;6.13;;;;;;;17.30;100.00;94109.09;5007405;28;20021;-86
2023/10/25 04:55:30;;;;;;;25.08;6.30;;;;;;;17.33;100.00;94100.75;5005572;28;20589;-94
2023/10/25 04:57:56;;;;;;;24.23;5.80;;;;;;;17.25;100.00;94088.03;4997916;28;20067;-81
2023/10/25 05:00:22;;;;;;;22.70;5.72;;;;;;;17.30;100.00;94088.13;5006627;28;20026;-89
2023/10/25 05:02:48;;;;;;;19.63;5.60;;;;;;;17.39;100.00;94080.69;5007835;28;20128;-88
2023/10/25 05:05:13;;;;;;;21.63;5.85;;;;;;;17.65;97.29;94066.28;5017369;28;20475;-89
2023/10/25 05:07:39;;;;;;;21.17;5.07;;;;;;;17.75;95.87;94063.81;5022399;28;20415;-85
2023/10/25 05:10:07;;;;;;;24.63;5.38;;;;;;;17.85;94.06;94059.53;4996464;28;20034;-87
2023/10/25 05:12:44;;;;;;;26.67;5.30;;;;;;;17.96;93.32;94052.63;5023557;28;20025;-92
2023/10/25 05:15:11;;;;;;;23.98;5.78;;;;;;;18.10;92.30;94061.78;5017012;28;20030;-91
2023/10/25 05:17:38;;;;;;;32.67;6.57;;;;;;;18.12;90.68;94051.03;4987816;28;20025;-86
2023/10/25 05:20:07;;;;;;;19.70;5.35;;;;;;;18.27;89.21;94067.78;4989796;28;20025;-89
2023/10/25 05:22:40;;;;;;;26.63;5.75;;;;;;;18.31;88.75;94073.34;5004680;28;20034;-86
2023/10/25 05:25:08;;;;;;;18.52;4.95;;;;;;;18.16;90.70;94096.72;5005792;28;20036;-83
2023/10/25 05:27:35;;;;;;;24.70;7.25;;;;;;;16.59;100.00;94113.88;4995553;28;20612;-87
2023/10/25 05:30:05;;;;;;;18.55;6.53;;;;;;;15.91;100.00;94111.72;4993294;28;20076;-90
2023/10/25 05:32:32;;;;;;;24.98;7.57;;;;;;;15.47;100.00;94123.38;5005724;28;20096;-89
2023/10/25 05:35:01;;;;;;;25.27;7.03;;;;;;;15.30;100.00;94117.16;5014399;28;20249;-88
2023/10/25 05:37:27;;;;;;;20.65;6.95;;;;;;;14.88;100.00;94111.03;5002664;28;20026;-90
2023/10/25 05:39:53;;;;;;;16.70;6.93;;;;;;;14.87;100.00;94103.41;4968199;28;20034;-94
2023/10/25 05:42:20;;;;;;;21.52;6.80;;;;;;;14.86;100.00;94110.47;5003422;28;20498;-91
2023/10/25 05:44:46;;;;;;;22.65;6.75;;;;;;;14.99;100.00;94089.47;5002673;28;20053;-90
2023/10/25 05:47:12;;;;;;;32.97;7.10;;;;;;;14.94;100.00;94097.13;4977803;28;20044;-89
2023/10/25 05:49:38;;;;;;;20.73;6.70;;;;;;;14.99;100.00;94107.72;4984640;28;20033;-91
2023/10/25 05:52:05;;;;;;;17.20;5.93;;;;;;;14.91;100.00;94109.81;4995878;28;20026;-90
2023/10/25 05:54:31;;;;;;;19.75;6.55;;;;;;;14.93;100.00;94107.78;4999216;28;20033;-91
2023/10/25 05:56:56;;;;;;;20.42;6.55;;;;;;;14.73;100.00;94108.00;4987473;28;20025;-90
2023/10/25 05:59:22;;;;;;;23.50;6.43;;;;;;;14.61;100.00;94092.28;4992765;28;20033;-91
2023/10/25 06:01:49;;;;;;;18.92;6.35;;;;;;;14.74;100.00;94094.75;5001059;28;20428;-89
2023/10/25 06:04:15;;;;;;;16.00;6.13;;;;;;;14.99;100.00;94110.31;4982884;28;20057;-90
2023/10/25 06:06:43;;;;;;;20.60;6.68;;;;;;;14.90;100.00;94116.06;5005158;28;20037;-89
2023/10/25 06:09:10;;;;;;;14.60;6.38;;;;;;;14.95;100.00;94109.16;5002011;28;20033;-92
2023/10/25 06:11:37;;;;;;;22.80;7.15;;;;;;;14.87;100.00;94116.47;5007297;28;20610;-89
2023/10/25 06:14:03;;;;;;;23.40;6.28;;;;;;;15.09;100.00;94122.84;5003764;28;20033;-89
2023/10/25 06:16:29;;;;;;;22.52;6.88;;;;;;;15.09;100.00;94107.97;4988112;28;20527;-89
2023/10/25 06:18:54;;;;;;;23.25;6.82;;;;;;;15.22;100.00;94127.88;5002943;28;20114;-90
2023/10/25 06:21:19;;;;;;;17.02;7.15;;;;;;;15.32;100.00;94136.78;5004469;28;20017;-91
2023/10/25 06:23:45;;;;;;;24.33;7.55;;;;;;;15.34;100.00;94128.75;4988227;28;20022;-90
2023/10/25 06:26:10;;;;;;;23.13;7.13;;;;;;;15.40;100.00;94132.28;4987994;28;20677;-92
2023/10/25 06:28:36;;;;;;;25.38;7.10;;;;;;;15.38;100.00;94118.69;5004268;28;20049;-92
2023/10/25 06:31:01;;;;;;;19.80;7.25;;;;;;;15.45;100.00;94125.38;5015649;28;20033;-92
2023/10/25 06:33:26;;;;;;;19.80;7.50;;;;;;;15.13;100.00;94127.41;4993885;28;20033;-88
2023/10/25 06:35:58;;;;;;;20.38;8.77;;;;;;;15.20;100.00;94112.47;5016109;28;20431;-91
2023/10/25 06:38:24;;;;;;;26.30;7.75;;;;;;;15.28;100.00;94116.59;4989025;28;20068;-90
2023/10/25 06:40:50;;;;;;;26.05;8.18;;;;;;;15.35;100.00;94134.78;4990082;28;20050;-94
2023/10/25 06:43:16;;;;;;;28.42;8.43;;;;;;;15.19;100.00;94125.72;4988975;28;20547;-92
2023/10/25 06:45:42;;;;;;;30.52;8.75;;;;;;;15.42;100.00;94130.25;4981747;28;20038;-86
2023/10/25 06:48:07;;;;;;;30.67;8.68;;;;;;;15.57;100.00;94154.19;5000828;28;20054;-90
2023/10/25 06:50:33;;;;;;;25.40;7.50;;;;;;;15.49;100.00;94138.81;4984484;28;20595;-90
2023/10/25 06:52:59;;;;;;;23.95;7.55;;;;;;;15.16;100.00;94150.44;4967115;28;20040;-92
2023/10/25 06:55:25;;;;;;;27.08;8.02;;;;;;;15.22;100.00;94125.28;4984500;28;20098;-90
2023/10/25 06:57:51;;;;;;;32.92;9.15;;;;;;;15.73;100.00;94124.84;4983558;28;20626;-92
2023/10/25 07:00:17;;;;;;;27.77;9.10;;;;;;;15.54;100.00;94128.53;4994047;28;20033;-89
2023/10/25 07:02:56;;;;;;;23.35;7.07;;;;;;;15.80;100.00;94134.16;4966251;28;20093;-92
2023/10/25 07:05:23;;;;;;;32.22;7.65;;;;;;;16.15;100.00;94125.63;4983634;28;20066;-91
2023/10/25 07:07:50;;;;;;;22.17;6.72;;;;;;;16.14;100.00;94134.47;4966381;28;20168;-90
2023/10/25 07:10:16;;;;;;;27.17;6.80;;;;;;;16.46;100.00;94124.50;4954664;28;20029;-89
2023/10/25 07:12:42;;;;;;;24.77;7.63;;;;;;;16.70;100.00;94133.97;4983471;28;20029;-89
2023/10/25 07:15:08;;;;;;;25.77;7.00;;;;;;;16.63;100.00;94130.69;4982607;28;20026;-90
2023/10/25 07:17:34;;;;;;;17.48;6.38;;;;;;;16.88;100.00;94128.63;4983118;28;20037;-88
2023/10/25 07:20:00;;;;;;;25.50;6.53;;;;;;;16.66;100.00;94112.69;4966504;28;20034;-90
2023/10/25 07:22:27;;;;;;;27.27;6.78;;;;;;;17.13;100.00;94134.38;4982954;28;20375;-90
2023/10/25 07:24:52;;;;;;;24.77;7.25;;;;;;;17.37;100.00;94129.84;4983722;28;20053;-90
2023/10/25 07:27:18;;;;;;;28.58;7.75;;;;;;;17.37;100.00;94130.66;4999321;28;20101;-88
2023/10/25 07:29:43;;;;;;;26.38;8.02;;;;;;;17.57;100.00;94127.66;4966626;28;20038;-88
2023/10/25 07:32:09;;;;;;;29.48;7.82;;;;;;;17.63;100.00;94129.34;4975335;28;20030;-87
2023/10/25 07:34:34;;;;;;;28.45;7.10;;;;;;;17.76;100.00;94144.78;5001020;28;20053;-87
2023/10/25 07:37:00;;;;;;;28.80;7.93;;;;;;;17.38;100.00;94153.22;4960845;28;20029;-89
2023/10/25 07:39:26;;;;;;;38.40;8.80;;;;;;;17.03;100.00;94139.41;4969184;28;20030;-82
2023/10/25 07:41:51;;;;;;;34.38;8.13;;;;;;;17.46;100.00;94165.16;4966926;28;20030;-91
2023/10/25 07:44:16;;;;;;;32.17;8.57;;;;;;;17.52;100.00;94169.44;4981296;28;20045;-89
2023/10/25 07:46:42;;;;;;;22.25;8.07;;;;;;;17.49;100.00;94164.69;4979638;28;20088;-89
2023/10/25 07:49:07;;;;;;;19.77;7.82;;;;;;;17.80;100.00;94177.34;4991232;28;20022;-87
2023/10/25 07:51:33;;;;;;;24.73;7.72;;;;;;;17.78;100.00;94178.63;5015714;28;20033;-86
2023/10/25 07:53:58;;;;;;;28.23;7.78;;;;;;;17.88;100.00;94189.28;4964479;28;20038;-88
2023/10/25 07:56:23;;;;;;;25.15;7.40;;;;;;;17.93;100.00;94192.00;5020012;28;20029;-88
2023/10/25 07:58:50;;;;;;;34.85;7.85;;;;;;;18.03;99.77;94186.94;4970764;28;20558;-91
2023/10/25 08:01:15;;;;;;;36.22;12.02;;;;;;;18.14;99.20;94180.81;4994825;28;20026;-91
2023/10/25 08:03:41;;;;;;;37.80;11.50;;;;;;;18.21;98.40;94193.78;4993180;28;20037;-89
2023/10/25 08:06:07;;;;;;;26.33;7.93;;;;;;;18.09;97.75;94193.84;5018402;28;20033;-91
2023/10/25 08:08:32;;;;;;;29.75;7.80;;;;;;;18.21;96.25;94175.44;5003337;28;20428;-88
2023/10/25 08:11:05;;;;;;;29.08;7.55;;;;;;;18.53;94.81;94186.22;5001233;28;20083;-86
2023/10/25 08:13:31;;;;;;;24.27;6.57;;;;;;;18.69;93.47;94182.78;4985711;28;20429;-86
2023/10/25 08:16:01;;;;;;;30.90;7.63;;;;;;;18.84;92.79;94188.28;5001078;28;20037;-82
2023/10/25 08:18:27;;;;;;;29.65;7.53;;;;;;;18.85;93.24;94195.09;4996444;28;20461;-87
2023/10/25 08:20:54;;;;;;;31.77;8.15;;;;;;;18.84;92.62;94193.53;4982922;28;20097;-88
2023/10/25 08:23:19;;;;;;;30.08;8.55;;;;;;;18.91;92.36;94194.19;4997173;28;20029;-88
2023/10/25 08:25:44;;;;;;;31.58;8.82;;;;;;;18.91;92.15;94196.78;4998815;28;20030;-84
2023/10/25 08:28:10;;;;;;;32.65;8.25;;;;;;;18.95;92.08;94195.25;4997662;28;20522;-87
2023/10/25 08:30:35;;;;;;;28.00;8.25;;;;;;;18.95;91.99;94200.50;5002213;28;20033;-87
2023/10/25 08:33:01;;;;;;;28.67;7.40;;;;;;;18.97;92.10;94210.78;4986122;28;20810;-87
2023/10/25 08:35:27;;;;;;;32.78;7.93;;;;;;;19.09;91.25;94203.59;4998508;28;20030;-87
2023/10/25 08:37:52;;;;;;;28.92;7.20;;;;;;;19.11;87.93;94189.19;4997991;28;20373;-89
2023/10/25 08:40:18;;;;;;;30.05;7.75;;;;;;;19.43;87.87;94195.44;5007650;28;20068;-87
2023/10/25 08:42:43;;;;;;;32.78;8.00;;;;;;;19.75;86.71;94195.53;4982853;28;20103;-88
2023/10/25 08:45:09;;;;;;;32.92;8.55;;;;;;;20.20;85.42;94191.78;4980661;28;20045;-86
2023/10/25 08:47:35;;;;;;;27.65;7.40;;;;;;;21.03;80.64;94191.19;4995406;28;20111;-86
2023/10/25 08:50:03;;;;;;;30.48;7.90;;;;;;;20.90;79.94;94183.75;4983774;28;20025;-88
2023/10/25 08:52:29;;;;;;;26.20;6.97;;;;;;;20.94;79.45;94195.34;4982308;28;20030;-87
2023/10/25 08:54:54;;;;;;;36.13;7.60;;;;;;;20.87;79.46;94198.19;4981044;28;20037;-86
2023/10/25 08:57:20;;;;;;;30.88;6.60;;;;;;;20.95;78.00;94195.09;4966178;28;20033;-88
2023/10/25 08:59:46;;;;;;;30.27;6.80;;;;;;;21.11;77.02;94198.66;4985365;28;20040;-87
2023/10/25 09:02:12;;;;;;;34.80;7.35;;;;;;;21.24;76.40;94198.22;4987375;28;20108;-87
2023/10/25 09:05:13;;;;;;;26.63;6.47;;;;;;;21.46;74.42;94190.94;4983339;28;20384;-88
2023/10/25 09:07:38;;;;;;;30.92;8.93;;;;;;;21.33;71.87;94182.69;4921468;29;20142;-87
2023/10/25 09:10:11;;;;;;;31.10;6.75;;;;;;;21.25;71.34;94189.25;5002518;28;20217;-82
2023/10/25 09:12:37;;;;;;;31.70;8.38;;;;;;;21.85;70.80;94188.72;5000654;28;20033;-87
2023/10/25 09:15:03;;;;;;;39.97;8.25;;;;;;;21.95;69.55;94185.34;4999886;28;20525;-86
2023/10/25 09:17:30;;;;;;;31.73;7.45;;;;;;;22.04;68.45;94187.22;5001853;28;20033;-82
2023/10/25 09:19:56;;;;;;;37.60;7.68;;;;;;;22.74;66.12;94190.22;4983335;28;20029;-87
2023/10/25 09:22:26;;;;;;;39.95;9.13;;;;;;;22.56;65.83;94186.25;5018801;28;20041;-85
2023/10/25 09:24:54;;;;;;;30.73;7.30;;;;;;;22.22;65.38;94183.28;4980885;28;20025;-85
2023/10/25 09:27:20;;;;;;;30.95;6.55;;;;;;;22.42;65.83;94190.44;5013746;28;20033;-85
2023/10/25 09:29:46;;;;;;;29.77;6.45;;;;;;;22.19;63.85;94170.63;4981335;28;20029;-83
2023/10/25 09:32:11;;;;;;;29.98;6.88;;;;;;;22.57;62.88;94191.25;5017928;28;20021;-86
2023/10/25 09:34:37;;;;;;;33.45;7.38;;;;;;;22.57;63.53;94188.63;5004080;28;20088;-86
2023/10/25 09:37:04;;;;;;;26.10;6.93;;;;;;;22.45;64.51;94182.81;4985269;28;20406;-88
2023/10/25 09:39:32;;;;;;;33.28;6.50;;;;;;;22.43;64.94;94178.84;5004208;28;20104;-86
2023/10/25 09:42:02;;;;;;;30.05;6.43;;;;;;;22.39;64.72;94188.34;4981862;28;20026;-83
2023/10/25 09:44:31;;;;;;;36.88;7.43;;;;;;;22.35;63.89;94177.50;5017303;28;20057;-86
2023/10/25 09:46:58;;;;;;;40.05;7.93;;;;;;;22.11;64.01;94165.88;4994481;28;20095;-83
2023/10/25 09:49:29;;;;;;;38.95;7.72;;;;;;;21.91;65.19;94163.97;4985336;28;20091;-83
2023/10/25 09:52:05;;;;;;;33.10;6.22;;;;;;;22.10;65.61;94177.47;4979235;28;20112;-83
2023/10/25 09:54:38;;;;;;;34.97;7.13;;;;;;;22.14;65.84;94169.84;4990929;28;20029;-83
2023/10/25 09:57:05;;;;;;;32.83;7.53;;;;;;;21.99;64.60;94171.38;4983448;28;20033;-84
2023/10/25 09:59:34;;;;;;;38.53;7.68;;;;;;;22.16;65.30;94163.22;5002043;28;20071;-83
2023/10/25 10:02:01;;;;;;;44.80;8.30;;;;;;;22.22;64.11;94167.47;4980013;28;20026;-82
2023/10/25 10:04:54;;;;;;;48.17;7.95;;;;;;;22.36;64.84;94167.75;4984814;28;20037;-84
2023/10/25 10:07:35;;;;;;;45.60;8.10;;;;;;;22.50;63.40;94166.19;5021021;28;20119;-82
2023/10/25 10:10:33;;;;;;;37.40;7.20;;;;;;;22.43;64.24;94149.81;5005976;28;20806;-83
2023/10/25 10:12:58;;;;;;;46.67;8.65;;;;;;;22.37;63.72;94138.47;4987642;28;20037;-84
2023/10/25 10:16:02;;;;;;;39.75;7.90;;;;;;;22.75;62.94;94129.25;5005234;28;20407;-83
2023/10/25 10:18:31;;;;;;;41.75;7.72;;;;;;;22.69;62.67;94125.03;4989324;28;20044;-84
2023/10/25 10:21:14;;;;;;;41.25;8.35;;;;;;;22.55;61.18;94121.28;5004059;28;20116;-85
2023/10/25 10:23:49;;;;;;;35.63;6.47;;;;;;;22.54;61.55;94112.59;5006055;28;20495;-82
2023/10/25 10:26:43;;;;;;;42.85;7.68;;;;;;;22.49;62.07;94102.03;4986978;28;20168;-85
2023/10/25 10:29:33;;;;;;;46.38;8.50;;;;;;;22.59;64.04;94104.66;4981499;28;20049;-83
2023/10/25 10:32:00;;;;;;;40.80;8.90;;;;;;;22.45;63.30;94100.97;5020251;28;20411;-82
2023/10/25 10:34:44;;;;;;;35.45;8.10;;;;;;;22.55;64.61;94093.06;5021276;28;20029;-83
2023/10/25 10:37:16;;;;;;;55.15;9.05;;;;;;;22.69;64.02;94097.81;5002703;28;20120;-81
2023/10/25 10:40:02;;;;;;;50.00;8.98;;;;;;;22.74;63.83;94092.53;4986824;28;20504;-80
2023/10/25 10:42:31;;;;;;;56.38;9.25;;;;;;;22.92;60.87;94100.69;4994179;28;20467;-84
2023/10/25 10:44:57;;;;;;;62.70;11.48;;;;;;;23.12;61.25;94091.91;5003646;28;20511;-77
2023/10/25 10:47:34;;;;;;;52.83;9.95;;;;;;;23.29;60.83;94081.81;5001574;28;20081;-80
2023/10/25 10:50:08;;;;;;;60.78;9.77;;;;;;;23.42;60.22;94072.53;4975070;28;20383;-82
2023/10/25 10:52:33;;;;;;;66.38;10.02;;;;;;;23.26;60.66;94071.78;4961849;28;20056;-82
2023/10/25 10:54:59;;;;;;;42.20;7.38;;;;;;;23.00;60.76;94057.06;4986236;28;20060;-84
2023/10/25 10:57:25;;;;;;;39.50;7.10;;;;;;;22.93;61.30;94067.13;5004560;28;20029;-82
2023/10/25 10:59:50;;;;;;;51.67;8.05;;;;;;;23.05;61.45;94070.28;4984104;28;20522;-84
2023/10/25 11:02:16;;;;;;;57.45;8.48;;;;;;;22.89;61.15;94044.97;4979328;28;20038;-80
2023/10/25 11:04:42;;;;;;;52.08;9.13;;;;;;;23.38;60.52;94061.66;5019229;28;20021;-82
2023/10/25 11:07:07;;;;;;;40.03;8.00;;;;;;;23.44;60.08;94034.16;5003868;28;20392;-84
2023/10/25 11:09:33;;;;;;;46.65;8.68;;;;;;;23.40;58.91;94043.72;5021492;28;20092;-84
2023/10/25 11:12:07;;;;;;;52.83;9.02;;;;;;;23.36;60.53;94049.78;5003220;28;20021;-83
2023/10/25 11:14:40;;;;;;;46.83;9.10;;;;;;;23.38;60.03;94051.09;4987803;28;20411;-83
2023/10/25 11:17:06;;;;;;;45.03;8.82;;;;;;;23.51;61.08;94041.81;4986248;28;20403;-83
2023/10/25 11:19:33;;;;;;;49.35;9.63;;;;;;;23.39;60.56;94036.03;5003674;28;20033;-83
2023/10/25 11:21:59;;;;;;;59.90;10.13;;;;;;;23.19;60.78;94034.25;5003139;28;20030;-82
2023/10/25 11:24:25;;;;;;;69.22;9.10;;;;;;;23.32;59.99;94041.59;4991919;28;20026;-83
2023/10/25 11:26:50;;;;;;;53.30;8.88;;;;;;;23.53;59.24;94035.19;4985755;28;20035;-83
2023/10/25 11:29:16;;;;;;;53.50;8.65;;;;;;;23.34;59.95;94036.81;4986276;28;20017;-82
2023/10/25 11:31:42;;;;;;;64.70;9.63;;;;;;;23.46;58.92;94041.84;4987706;28;20488;-83
2023/10/25 11:34:07;;;;;;;55.28;10.07;;;;;;;23.46;59.49;94040.00;4986207;28;20025;-83
2023/10/25 11:36:34;;;;;;;71.65;9.50;;;;;;;23.52;59.83;94044.19;5003880;28;20040;-82
2023/10/25 11:39:08;;;;;;;50.70;8.85;;;;;;;23.53;58.48;94027.25;5002354;28;20561;-85
2023/10/25 11:41:34;;;;;;;53.28;8.57;;;;;;;23.24;60.31;94018.41;5021541;28;20029;-82
2023/10/25 11:44:00;;;;;;;59.80;9.80;;;;;;;23.32;60.05;94036.31;5003389;28;20427;-83
2023/10/25 11:46:40;;;;;;;66.78;9.95;;;;;;;23.43;59.80;94034.44;5002974;28;20479;-85
2023/10/25 11:49:06;;;;;;;53.60;8.98;;;;;;;23.83;57.15;94022.81;5004058;28;20784;-86
2023/10/25 11:51:33;;;;;;;62.63;9.20;;;;;;;24.15;56.75;94012.53;4985937;28;20033;-83
2023/10/25 11:53:59;;;;;;;58.05;9.18;;;;;;;24.23;55.10;94019.91;5004183;28;20035;-85
2023/10/25 11:58:54;;;;;;;57.92;8.38;;;;;;;24.68;54.32;94018.69;4965841;28;20632;-82
2023/10/25 12:01:20;;;;;;;59.03;10.13;;;;;;;24.84;53.80;94024.63;4966325;28;20042;-84
2023/10/25 12:03:45;;;;;;;45.03;8.98;;;;;;;24.89;53.32;94013.97;4963374;28;20040;-84
2023/10/25 12:06:12;;;;;;;55.50;8.88;;;;;;;25.00;53.81;94029.47;4966724;28;20030;-84
2023/10/25 12:08:40;;;;;;;58.97;9.43;;;;;;;24.86;52.67;94028.56;4965736;28;21098;-83
2023/10/25 12:11:11;;;;;;;68.47;11.68;;;;;;;24.92;52.56;94026.63;4975040;28;20060;-84
2023/10/25 12:13:41;;;;;;;57.45;12.88;;;;;;;24.79;52.06;94032.63;4983611;28;20069;-84
2023/10/25 12:16:07;;;;;;;59.88;12.30;;;;;;;24.57;53.56;94036.53;4971031;28;20445;-83
2023/10/25 12:18:33;;;;;;;56.72;12.00;;;;;;;24.26;53.83;94042.38;4968982;28;20554;-83
2023/10/25 12:21:03;;;;;;;66.75;16.13;;;;;;;24.06;54.14;94035.34;4966153;28;20022;-83
2023/10/25 12:23:29;;;;;;;65.55;17.10;;;;;;;24.01;54.77;94022.16;4982917;28;20785;-81
2023/10/25 12:25:55;;;;;;;64.70;11.52;;;;;;;23.95;54.93;94015.34;4967125;28;20109;-83
2023/10/25 12:28:20;;;;;;;57.40;8.82;;;;;;;23.76;54.84;94001.97;4958935;28;20122;-84
2023/10/25 12:30:46;;;;;;;53.03;8.85;;;;;;;23.71;55.28;94025.03;4979858;28;20903;-85
2023/10/25 12:33:11;;;;;;;52.53;8.93;;;;;;;23.69;55.05;94033.25;4971434;28;20034;-80
2023/10/25 12:36:21;;;;;;;51.40;9.27;;;;;;;23.55;55.73;94030.41;4976667;28;20045;-84
2023/10/25 12:38:46;;;;;;;54.42;9.43;;;;;;;23.46;57.20;94044.47;4967804;28;20501;-82
2023/10/25 12:41:12;;;;;;;63.83;10.35;;;;;;;23.26;58.03;94028.69;4966023;28;20026;-82
2023/10/25 12:43:37;;;;;;;78.00;15.10;;;;;;;23.17;58.58;94031.13;4965895;28;20030;-85
2023/10/25 12:46:03;;;;;;;74.32;18.63;;;;;;;23.13;58.78;94023.97;4959520;28;20069;-82
2023/10/25 12:48:28;;;;;;;85.53;24.08;;;;;;;22.97;60.53;94029.34;4969881;28;20027;-80
2023/10/25 12:50:53;;;;;;;76.40;19.80;;;;;;;22.84;60.71;94029.13;4975052;28;20475;-81
2023/10/25 12:53:19;;;;;;;88.05;20.05;;;;;;;22.92;60.28;94045.22;4970939;28;20474;-81